Hayward, CA

2:00 PM PST on December 08, 2016 (GMT -0800)
Hayward Executive | | Change Station

Elev 46 ft 37.66 °N, 122.12 °W | Updated 6 minutes ago

Overcast
Overcast
62 °F
Feels Like 62 °F
N
12
Wind Variable Wind from SSE

Today
High -- | Low -- °F
--% Chance of Precip.
Yesterday
High -- | Low -- °F
Precip. -- in
Pressure 30.14 in
Visibility 5.0 miles
Clouds Overcast 1900 ft
Dew Point 52 °F
Humidity 70%
Rainfall 0.21 in
Snow Depth Not available.
7:11 AM 4:49 PM
Waxing Gibbous, 67% visible
METAR KHWD 082154Z 16010KT 5SM -RA OVC019 17/11 A3011 RMK AO2 RAE03B29 SLP205 P0000 T01670111
Pressure 30.14 in
Visibility 5.0 miles
Clouds Overcast 1900 ft
Dew Point 52 °F
Humidity 70%
Rainfall 0.21 in
Snow Depth Not available.
7:11 AM 4:49 PM
Waxing Gibbous, 67% visible
METAR KHWD 082154Z 16010KT 5SM -RA OVC019 17/11 A3011 RMK AO2 RAE03B29 SLP205 P0000 T01670111

10-Day Weather Forecast

Almanac

Astronomy

Dec. 08, 2016 Rise Set
Actual Time
Civil Twilight
Nautical Twilight
Astronomical Twilight
Moon
Length of Visible Light
Length of Day
Tomorrow will be .
, % of the Moon is Illuminated

Today's Extremes

State Highs State Lows

Community

WunderPhotos

Upload Photos

1,956,277 photos uploaded!

WunderBlog® & News

Nearby

Air Quality

  Air Quality AQ Index Pollutant
Not available.

Snow Depth

Station Depth Elevation

Earthquake Activity

City Distance Mag. Time & Date
Minimum magnitude displayed is 2.5.

Coastal Water Temperatures

Place Temperature

Stations

Nearby Weather Stations

Station Location Temp. Windchill Dew Point Humidity Wind Precip. Elev Updated Type
                   

Watches & Warnings

There are currently no watches in effect.